Time;durP1;ratioP1;P1;durP2;ratioP2;P2;SDS_P1;SDS_P2;PMS_P1;PMS_P2;Temp;Humidity;BMP_temperature;BMP_pressure;BME280_temperature;BME280_humidity;BME280_pressure;Samples;Min_cycle;Max_cycle;Signal;HPM_P1;HPM_P2
2023/01/28 00:01:25;;;;;;;13.50;5.32;;;-3.00;74.00;;;;;;4142708;28;20029;-85
2023/01/28 00:03:29;;;;;;;7.13;4.28;;;-3.00;74.00;;;;;;4153019;28;20033;-85
2023/01/28 00:05:51;;;;;;;14.60;6.45;;;-3.00;74.00;;;;;;4164816;28;20038;-83
2023/01/28 00:07:51;;;;;;;18.50;7.07;;;-3.00;74.10;;;;;;4155114;28;20055;-84
2023/01/28 00:09:54;;;;;;;20.83;9.77;;;-3.00;74.00;;;;;;4148997;28;20025;-85
2023/01/28 00:12:15;;;;;;;28.70;10.13;;;-3.00;74.00;;;;;;4151215;28;20113;-84
2023/01/28 00:14:35;;;;;;;23.52;9.93;;;-2.90;74.10;;;;;;4149837;28;20105;-84
2023/01/28 00:16:56;;;;;;;20.52;8.68;;;-3.10;73.90;;;;;;4153680;28;20064;-84
2023/01/28 00:19:17;;;;;;;23.40;9.88;;;-3.00;74.00;;;;;;4147620;28;20072;-83
2023/01/28 00:21:37;;;;;;;18.42;7.72;;;-3.00;74.00;;;;;;4152186;28;20076;-84
2023/01/28 00:23:58;;;;;;;13.13;5.95;;;-3.10;73.80;;;;;;4152872;28;20408;-84
2023/01/28 00:26:19;;;;;;;11.35;4.88;;;-3.10;73.80;;;;;;4154645;28;20057;-84
2023/01/28 00:28:41;;;;;;;10.00;4.40;;;-3.10;73.90;;;;;;4152645;28;20088;-84
2023/01/28 00:30:57;;;;;;;7.82;4.32;;;-3.20;73.80;;;;;;4164788;28;20044;-84
2023/01/28 00:33:17;;;;;;;9.90;4.07;;;-3.10;73.90;;;;;;4147390;28;20063;-84
2023/01/28 00:35:38;;;;;;;9.07;4.10;;;-3.10;74.00;;;;;;4147096;28;20044;-84
2023/01/28 00:37:59;;;;;;;11.40;4.68;;;-3.20;74.00;;;;;;4149121;28;20076;-84
2023/01/28 00:40:19;;;;;;;11.35;4.00;;;-3.20;74.00;;;;;;4147028;28;20033;-84
2023/01/28 00:42:40;;;;;;;12.45;4.40;;;-3.20;73.90;;;;;;4148456;28;20038;-84
2023/01/28 00:45:01;;;;;;;9.20;4.38;;;-3.20;73.90;;;;;;4142934;28;20394;-84
2023/01/28 00:47:21;;;;;;;6.78;3.88;;;-3.20;73.90;;;;;;4151690;28;20060;-85
2023/01/28 00:49:24;;;;;;;10.05;4.72;;;-3.20;73.90;;;;;;4144671;28;20021;-86
2023/01/28 00:51:44;;;;;;;8.10;4.45;;;-3.30;73.80;;;;;;4150151;28;20037;-85
2023/01/28 00:54:05;;;;;;;13.90;5.00;;;-3.30;73.90;;;;;;4148489;28;20088;-85
2023/01/28 00:56:26;;;;;;;10.88;4.38;;;-3.30;73.90;;;;;;4144890;28;20107;-84
2023/01/28 00:58:47;;;;;;;10.45;4.63;;;-3.30;73.80;;;;;;4152740;28;20049;-83
2023/01/28 01:00:48;;;;;;;13.52;4.95;;;-3.30;73.80;;;;;;4157209;28;20033;-84
2023/01/28 01:03:08;;;;;;;7.90;4.30;;;-3.40;73.80;;;;;;4152911;28;20143;-84
2023/01/28 01:05:29;;;;;;;11.80;4.72;;;-3.40;73.70;;;;;;4151379;28;20084;-84
2023/01/28 01:07:50;;;;;;;9.27;4.47;;;-3.40;73.70;;;;;;4148179;28;20071;-84
2023/01/28 01:10:14;;;;;;;11.48;4.38;;;-3.40;73.80;;;;;;4147271;28;21224;-84
2023/01/28 01:12:35;;;;;;;9.35;3.88;;;-3.40;73.80;;;;;;4142195;28;20425;-83
2023/01/28 01:14:56;;;;;;;7.63;3.95;;;-3.40;73.90;;;;;;4146813;28;20660;-83
2023/01/28 01:17:17;;;;;;;6.25;3.33;;;-3.40;74.00;;;;;;4151171;28;20457;-84
2023/01/28 01:19:37;;;;;;;10.23;4.25;;;-3.40;74.00;;;;;;4148731;28;20549;-84
2023/01/28 01:21:58;;;;;;;9.25;3.72;;;-3.40;74.10;;;;;;4160363;28;20486;-84
2023/01/28 01:24:19;;;;;;;6.90;3.63;;;-3.40;74.20;;;;;;4151444;28;20093;-83
2023/01/28 01:26:39;;;;;;;9.13;4.00;;;-3.40;74.20;;;;;;4151361;28;20033;-84
2023/01/28 01:29:00;;;;;;;15.48;4.45;;;-3.40;74.30;;;;;;4160378;28;20539;-83
2023/01/28 01:31:21;;;;;;;9.10;4.45;;;-3.50;74.40;;;;;;4150050;28;20680;-84
2023/01/28 01:33:42;;;;;;;8.70;4.03;;;-3.40;74.50;;;;;;4152146;28;20406;-83
2023/01/28 01:36:03;;;;;;;13.38;4.90;;;-3.50;74.50;;;;;;4148356;28;20398;-84
2023/01/28 01:38:04;;;;;;;8.70;4.40;;;-3.40;74.60;;;;;;4149254;28;20030;-84
2023/01/28 01:40:05;;;;;;;8.50;4.40;;;-3.40;74.70;;;;;;4132800;28;20044;-84
2023/01/28 01:42:10;;;;;;;11.20;4.68;;;-3.40;74.80;;;;;;4145162;28;20517;-83
2023/01/28 01:45:02;;;;;;;12.98;5.00;;;-3.40;74.90;;;;;;4151616;28;20033;-84
2023/01/28 01:47:03;;;;;;;10.60;4.43;;;-3.40;75.10;;;;;;4149530;28;20517;-85
2023/01/28 01:49:18;;;;;;;9.13;4.43;;;-3.40;75.20;;;;;;4147615;28;20030;-84
2023/01/28 01:51:27;;;;;;;11.18;4.15;;;-3.40;75.10;;;;;;4130056;28;20161;-84
2023/01/28 01:53:29;;;;;;;9.70;4.63;;;-3.40;75.00;;;;;;4148040;28;20358;-84
2023/01/28 01:55:41;;;;;;;12.75;5.05;;;-3.40;75.00;;;;;;4149264;28;20053;-85
2023/01/28 01:58:02;;;;;;;13.05;4.95;;;-3.40;75.00;;;;;;4142483;28;20029;-84
2023/01/28 02:00:18;;;;;;;8.85;4.40;;;-3.40;75.30;;;;;;4148268;28;20038;-85
2023/01/28 02:02:42;;;;;;;9.27;4.45;;;-3.30;75.10;;;;;;4149529;28;20996;-85
2023/01/28 02:05:03;;;;;;;8.75;4.38;;;-3.30;75.30;;;;;;4147021;28;20060;-85
2023/01/28 02:07:24;;;;;;;11.63;4.10;;;-3.30;75.20;;;;;;4146626;28;21984;-84
2023/01/28 02:09:45;;;;;;;9.50;4.60;;;-3.30;75.20;;;;;;4145667;28;20502;-84
2023/01/28 02:12:11;;;;;;;8.85;4.45;;;-3.30;75.30;;;;;;4147128;28;21580;-85
2023/01/28 02:14:34;;;;;;;11.50;4.55;;;-3.30;75.20;;;;;;4145754;28;20512;-85
2023/01/28 02:16:48;;;;;;;9.57;4.15;;;-3.30;75.10;;;;;;4175809;28;20021;-85
2023/01/28 02:19:11;;;;;;;12.20;4.70;;;-3.30;75.10;;;;;;4144865;28;20053;-85
2023/01/28 02:21:55;;;;;;;9.93;4.25;;;-3.30;75.10;;;;;;4147198;28;20470;-85
2023/01/28 02:24:36;;;;;;;6.80;4.13;;;-3.30;75.10;;;;;;4147919;28;20179;-85
2023/01/28 02:27:25;;;;;;;10.15;4.45;;;-3.30;75.00;;;;;;4147012;28;20033;-84
2023/01/28 02:30:01;;;;;;;8.90;4.35;;;-3.30;75.10;;;;;;4148742;28;21415;-84
2023/01/28 02:32:35;;;;;;;10.75;4.07;;;-3.30;75.20;;;;;;4149876;28;20034;-84
2023/01/28 02:35:12;;;;;;;8.88;4.07;;;-3.30;75.20;;;;;;4150169;28;21925;-84
2023/01/28 02:37:20;;;;;;;6.80;4.25;;;-3.40;75.10;;;;;;4150241;28;20036;-84
2023/01/28 02:39:25;;;;;;;8.05;4.07;;;-3.40;75.10;;;;;;4150293;28;21225;-84
2023/01/28 02:41:36;;;;;;;10.13;4.40;;;-3.40;75.10;;;;;;4145590;28;20022;-84
2023/01/28 02:43:42;;;;;;;8.23;4.18;;;-3.40;75.20;;;;;;4145389;28;20041;-84
2023/01/28 02:48:03;;;;;;;8.23;4.07;;;-3.40;75.30;;;;;;4145572;28;20044;-84
2023/01/28 02:50:10;;;;;;;11.20;4.60;;;-3.40;75.30;;;;;;4177242;28;20029;-84
2023/01/28 02:55:27;;;;;;;10.68;4.28;;;-3.40;75.40;;;;;;4141917;28;20030;-84
2023/01/28 02:57:41;;;;;;;11.18;4.63;;;-3.40;75.40;;;;;;4132002;28;20095;-84
2023/01/28 02:59:53;;;;;;;10.13;3.95;;;-3.40;75.40;;;;;;4143242;28;20026;-84
2023/01/28 03:02:02;;;;;;;9.13;4.78;;;-3.40;75.40;;;;;;4144992;28;20033;-84
2023/01/28 03:04:13;;;;;;;10.45;4.22;;;-3.40;75.50;;;;;;4127958;28;20062;-84
2023/01/28 03:06:43;;;;;;;8.07;4.13;;;-3.40;75.50;;;;;;4142117;28;20037;-84
2023/01/28 03:37:50;;;;;;;13.50;5.10;;;-3.50;75.40;;;;;;4146132;28;20083;-84
2023/01/28 03:40:11;;;;;;;10.68;4.90;;;-3.50;75.30;;;;;;4141798;28;20065;-84
2023/01/28 03:42:32;;;;;;;10.27;5.20;;;-3.50;75.30;;;;;;4143292;28;20038;-84
2023/01/28 03:44:51;;;;;;;9.70;5.50;;;-3.50;75.40;;;;;;4129011;28;20026;-84
2023/01/28 03:47:12;;;;;;;8.43;4.78;;;-3.50;75.40;;;;;;4147078;28;20129;-86
2023/01/28 03:49:33;;;;;;;8.85;4.72;;;-3.50;75.50;;;;;;4145099;28;20124;-85
2023/01/28 03:51:54;;;;;;;9.40;5.18;;;-3.50;75.60;;;;;;4153546;28;20072;-86
2023/01/28 03:54:14;;;;;;;12.00;5.55;;;-3.50;75.70;;;;;;4157367;28;20407;-85
2023/01/28 03:56:36;;;;;;;9.38;5.25;;;-3.50;75.70;;;;;;4169494;28;20042;-85
2023/01/28 03:58:57;;;;;;;11.18;5.35;;;-3.50;76.60;;;;;;4160912;28;20032;-85
2023/01/28 04:01:18;;;;;;;9.30;4.68;;;-3.50;75.80;;;;;;4149975;28;20149;-85
2023/01/28 04:03:39;;;;;;;10.85;5.57;;;-3.50;75.80;;;;;;4150838;28;20045;-85
2023/01/28 04:06:05;;;;;;;12.65;5.57;;;-3.50;75.80;;;;;;4152714;28;20025;-85
2023/01/28 04:08:27;;;;;;;12.50;5.45;;;-3.50;75.70;;;;;;4150477;28;20068;-85
2023/01/28 04:10:45;;;;;;;10.60;5.13;;;-3.50;75.80;;;;;;4150175;28;20060;-85
2023/01/28 04:12:48;;;;;;;12.25;5.88;;;-3.50;75.80;;;;;;4151106;28;20044;-86
2023/01/28 04:14:49;;;;;;;;;;;-3.50;75.70;;;;;;4152005;28;20033;-86
2023/01/28 04:16:50;;;;;;;10.02;5.35;;;-3.50;76.20;;;;;;4152804;28;20393;-86
2023/01/28 04:18:51;;;;;;;14.60;5.85;;;-3.50;75.90;;;;;;4151578;28;20422;-86
2023/01/28 04:20:52;;;;;;;10.27;5.60;;;-3.50;75.70;;;;;;4150844;28;20174;-86
2023/01/28 04:22:52;;;;;;;11.38;5.80;;;-3.40;75.80;;;;;;4154010;28;20049;-86
2023/01/28 04:24:53;;;;;;;10.23;5.75;;;-3.60;75.70;;;;;;4151809;28;20117;-85
2023/01/28 04:26:54;;;;;;;13.32;5.78;;;-3.50;75.90;;;;;;4152472;28;20053;-85
2023/01/28 04:28:55;;;;;;;11.98;5.82;;;-3.50;76.10;;;;;;4132461;28;20034;-85
2023/01/28 04:30:56;;;;;;;11.70;5.75;;;-3.50;76.30;;;;;;4148438;28;20026;-85
2023/01/28 04:32:57;;;;;;;12.48;6.03;;;-3.40;76.50;;;;;;4135890;28;20157;-85
2023/01/28 04:34:58;;;;;;;12.75;6.38;;;-3.50;76.50;;;;;;4137515;28;20069;-85
2023/01/28 04:36:59;;;;;;;14.75;6.18;;;-3.50;77.30;;;;;;4143183;28;20030;-85
2023/01/28 04:39:00;;;;;;;12.85;6.72;;;-3.40;76.70;;;;;;4150540;28;20413;-84
2023/01/28 04:41:01;;;;;;;12.23;6.13;;;-3.40;76.70;;;;;;4151864;28;20111;-84
2023/01/28 04:43:02;;;;;;;11.45;6.43;;;-3.40;76.90;;;;;;4154650;28;20025;-85
2023/01/28 04:45:03;;;;;;;12.10;6.40;;;-3.40;76.90;;;;;;4152827;28;20052;-84
2023/01/28 04:47:07;;;;;;;10.50;6.20;;;-3.30;77.00;;;;;;4146376;28;20075;-85
2023/01/28 04:49:08;;;;;;;15.13;6.63;;;-3.30;77.00;;;;;;4148709;28;20039;-85
2023/01/28 04:51:29;;;;;;;11.77;5.95;;;-3.30;77.00;;;;;;4157329;28;20041;-84
2023/01/28 04:53:30;;;;;;;12.85;6.93;;;-3.30;77.00;;;;;;4171545;28;20044;-85
2023/01/28 04:55:30;;;;;;;14.70;7.28;;;-3.30;77.00;;;;;;4169594;28;20030;-85
2023/01/28 04:57:51;;;;;;;15.45;7.18;;;-3.20;77.20;;;;;;4151172;28;20128;-85
2023/01/28 05:00:12;;;;;;;16.55;7.15;;;-3.20;77.20;;;;;;4150544;28;20098;-84
2023/01/28 05:02:33;;;;;;;13.98;7.47;;;-3.20;77.20;;;;;;4149660;28;20096;-84
2023/01/28 05:04:53;;;;;;;16.05;7.30;;;-3.10;77.20;;;;;;4147600;28;20082;-85
2023/01/28 05:07:14;;;;;;;13.57;7.55;;;-3.10;77.20;;;;;;4147443;28;20033;-85
2023/01/28 05:09:35;;;;;;;14.70;7.93;;;-3.10;77.30;;;;;;4178973;28;20029;-85
2023/01/28 05:11:56;;;;;;;21.45;7.88;;;-3.10;77.20;;;;;;4182687;28;20029;-85
2023/01/28 05:14:17;;;;;;;13.90;7.72;;;-3.00;77.20;;;;;;4151163;28;20036;-84
2023/01/28 05:16:37;;;;;;;20.60;8.27;;;-3.00;77.20;;;;;;4149533;28;20038;-85
2023/01/28 05:18:38;;;;;;;17.70;8.00;;;-3.00;77.10;;;;;;4149440;28;20033;-85
2023/01/28 05:20:39;;;;;;;16.67;7.60;;;-3.00;77.00;;;;;;4146927;28;20785;-86
2023/01/28 05:22:40;;;;;;;15.30;8.43;;;-3.00;77.10;;;;;;4153995;28;20030;-84
2023/01/28 05:24:41;;;;;;;16.17;7.80;;;-3.00;76.90;;;;;;4152944;28;20575;-85
2023/01/28 05:26:41;;;;;;;13.93;8.15;;;-3.00;76.80;;;;;;4148661;28;20033;-85
2023/01/28 05:28:42;;;;;;;16.92;8.13;;;-3.00;76.90;;;;;;4154476;28;20124;-85
2023/01/28 05:30:43;;;;;;;16.90;8.55;;;-3.00;76.90;;;;;;4151880;28;20784;-85
2023/01/28 05:32:44;;;;;;;16.98;8.63;;;-2.90;76.90;;;;;;4151723;28;20038;-85
2023/01/28 05:34:46;;;;;;;16.92;9.50;;;-3.00;76.80;;;;;;4147300;28;20048;-85
2023/01/28 05:37:06;;;;;;;19.73;8.85;;;-2.90;77.10;;;;;;4151618;28;20109;-85
2023/01/28 05:39:27;;;;;;;17.05;9.45;;;-2.90;77.30;;;;;;4151014;28;20033;-85
2023/01/28 05:41:48;;;;;;;17.02;9.73;;;-2.90;77.10;;;;;;4150712;28;20071;-85
2023/01/28 05:44:08;;;;;;;17.00;8.63;;;-2.90;76.90;;;;;;4150938;28;20037;-84
2023/01/28 05:46:29;;;;;;;16.25;8.90;;;-2.90;77.20;;;;;;4148734;28;20036;-85
2023/01/28 05:48:32;;;;;;;;;;;-2.90;77.10;;;;;;4152129;28;20049;-85
2023/01/28 05:50:53;;;;;;;21.85;10.05;;;-2.90;78.40;;;;;;4142976;28;20041;-85
2023/01/28 05:53:13;;;;;;;16.73;9.40;;;-2.90;77.10;;;;;;4149887;28;20042;-84
2023/01/28 05:55:34;;;;;;;15.48;8.70;;;-2.90;77.00;;;;;;4147986;28;20124;-84
2023/01/28 05:57:55;;;;;;;18.75;9.65;;;-2.90;76.90;;;;;;4152188;28;20172;-85
2023/01/28 06:00:16;;;;;;;16.50;10.30;;;-2.90;77.10;;;;;;4149334;28;20116;-86
2023/01/28 06:02:37;;;;;;;21.17;10.10;;;-2.90;77.00;;;;;;4149656;28;20341;-85
2023/01/28 06:04:58;;;;;;;20.38;10.32;;;-2.90;77.00;;;;;;4150028;28;20038;-86
2023/01/28 06:07:19;;;;;;;19.17;10.70;;;-2.90;77.00;;;;;;4148632;28;20064;-85
2023/01/28 06:09:39;;;;;;;19.40;10.18;;;-2.90;77.10;;;;;;4149624;28;20041;-85
2023/01/28 06:12:00;;;;;;;22.13;10.40;;;-2.90;77.10;;;;;;4151101;28;20037;-85
2023/01/28 06:14:21;;;;;;;20.20;10.25;;;-2.90;77.10;;;;;;4150022;28;20119;-86
2023/01/28 06:16:41;;;;;;;20.00;10.30;;;-2.90;77.10;;;;;;4152982;28;20103;-85
2023/01/28 06:19:02;;;;;;;19.25;10.30;;;-2.90;77.10;;;;;;4149222;28;21277;-86
2023/01/28 06:21:03;;;;;;;19.30;10.50;;;-2.80;77.10;;;;;;4151972;28;20567;-86
2023/01/28 06:23:04;;;;;;;24.38;10.70;;;-2.90;77.10;;;;;;4149145;28;20029;-85
2023/01/28 06:25:05;;;;;;;21.77;10.60;;;-2.80;77.10;;;;;;4141020;28;20025;-86
2023/01/28 06:27:06;;;;;;;22.42;11.02;;;-2.80;77.20;;;;;;4147651;28;20033;-86
2023/01/28 06:29:06;;;;;;;21.38;10.77;;;-2.80;77.50;;;;;;4152359;28;20658;-85
2023/01/28 06:31:07;;;;;;;22.70;11.32;;;-2.80;77.40;;;;;;4156406;28;20033;-86
2023/01/28 06:33:08;;;;;;;22.80;10.50;;;-2.80;77.30;;;;;;4144518;28;20041;-85
2023/01/28 06:35:28;;;;;;;21.42;10.13;;;-2.80;77.30;;;;;;4146149;28;20041;-85
2023/01/28 06:37:51;;;;;;;21.08;11.45;;;-2.80;77.30;;;;;;4145550;28;20124;-86
2023/01/28 06:40:12;;;;;;;21.20;11.48;;;-2.80;77.30;;;;;;4143582;28;20029;-86
2023/01/28 06:42:24;;;;;;;24.90;12.25;;;-2.80;77.30;;;;;;4137854;28;20036;-85
2023/01/28 06:44:44;;;;;;;22.73;11.93;;;-2.80;77.30;;;;;;4142200;28;20030;-87
2023/01/28 06:47:05;;;;;;;23.58;12.10;;;-2.80;77.30;;;;;;4139109;28;20037;-86
2023/01/28 06:49:25;;;;;;;26.70;13.00;;;-2.80;77.30;;;;;;4142142;28;20060;-87
2023/01/28 06:51:46;;;;;;;25.88;12.10;;;-2.70;77.40;;;;;;4143085;28;20029;-87
2023/01/28 06:54:07;;;;;;;29.13;12.50;;;-2.70;77.30;;;;;;4145555;28;20034;-87
2023/01/28 06:56:28;;;;;;;29.23;14.00;;;-2.70;77.50;;;;;;4144000;28;20134;-86
2023/01/28 06:58:49;;;;;;;27.88;13.77;;;-2.70;77.50;;;;;;4144473;28;20021;-87
2023/01/28 07:01:09;;;;;;;24.90;13.00;;;-2.70;77.80;;;;;;4144947;28;20036;-87
2023/01/28 07:03:10;;;;;;;25.27;12.85;;;-2.70;77.70;;;;;;4142365;28;20105;-87
2023/01/28 07:05:11;;;;;;;23.05;12.18;;;-2.70;77.50;;;;;;4124241;28;20478;-86
2023/01/28 07:07:11;;;;;;;27.02;13.82;;;-2.70;77.60;;;;;;4145917;28;20095;-87
2023/01/28 07:09:12;;;;;;;30.85;14.27;;;-2.70;77.60;;;;;;4147456;28;20100;-86
2023/01/28 07:11:13;;;;;;;28.45;13.82;;;-2.70;77.80;;;;;;4142947;28;20107;-86
2023/01/28 07:13:14;;;;;;;24.17;13.15;;;-2.60;77.80;;;;;;4161095;28;20058;-87
2023/01/28 07:15:15;;;;;;;24.88;13.13;;;-2.60;77.90;;;;;;4127368;28;21343;-85
2023/01/28 07:17:15;;;;;;;27.77;13.63;;;-2.40;77.90;;;;;;4146269;28;20033;-87
2023/01/28 07:19:16;;;;;;;28.77;13.65;;;-2.60;77.80;;;;;;4144531;28;20029;-86
2023/01/28 07:21:17;;;;;;;27.90;13.70;;;-2.50;78.00;;;;;;4140832;28;20041;-86
2023/01/28 07:23:20;;;;;;;28.70;14.75;;;-2.50;77.90;;;;;;4141560;28;20029;-86
2023/01/28 07:25:40;;;;;;;28.25;14.48;;;-2.50;78.00;;;;;;4146823;28;20057;-86
2023/01/28 07:28:01;;;;;;;31.67;15.27;;;-2.50;78.20;;;;;;4147799;28;20563;-86
2023/01/28 07:30:04;;;;;;;25.02;13.50;;;-2.50;78.10;;;;;;4156470;28;20024;-86
2023/01/28 07:32:26;;;;;;;29.58;14.40;;;-2.40;78.10;;;;;;4146183;28;20125;-86
2023/01/28 07:34:46;;;;;;;29.25;14.48;;;-2.40;78.20;;;;;;4144117;28;20056;-87
2023/01/28 07:37:08;;;;;;;26.83;14.18;;;-2.40;78.10;;;;;;4146193;28;22675;-86
2023/01/28 07:39:29;;;;;;;26.58;13.38;;;-2.30;78.20;;;;;;4146704;28;20412;-87
2023/01/28 07:41:49;;;;;;;28.83;15.68;;;-2.30;78.10;;;;;;4145989;28;20025;-83
2023/01/28 07:44:10;;;;;;;29.20;15.23;;;-2.30;78.20;;;;;;4149994;28;20202;-86
2023/01/28 07:46:31;;;;;;;28.30;13.90;;;-2.20;78.30;;;;;;4150432;28;20401;-87
2023/01/28 07:48:52;;;;;;;31.02;14.10;;;-2.20;78.10;;;;;;4142925;28;20471;-86
2023/01/28 07:51:12;;;;;;;29.02;13.73;;;-2.20;78.20;;;;;;4142797;28;21007;-86
2023/01/28 07:53:33;;;;;;;37.20;15.55;;;-2.20;78.20;;;;;;4143039;28;20037;-86
2023/01/28 07:56:00;;;;;;;31.23;14.55;;;-2.20;78.20;;;;;;4147453;28;22508;-87
2023/01/28 07:58:21;;;;;;;31.88;15.38;;;-2.10;78.20;;;;;;4144323;28;20065;-87
2023/01/28 08:00:42;;;;;;;34.05;14.95;;;-2.10;78.20;;;;;;4147980;28;20478;-86
2023/01/28 08:02:47;;;;;;;31.02;15.45;;;-2.10;78.40;;;;;;4144704;28;20029;-86
2023/01/28 08:04:47;;;;;;;30.08;14.43;;;-2.10;78.30;;;;;;4142145;28;20038;-86
2023/01/28 08:06:48;;;;;;;28.17;15.10;;;-2.00;78.40;;;;;;4145935;28;20113;-87
2023/01/28 08:08:49;;;;;;;26.73;14.40;;;-2.00;78.60;;;;;;4147562;28;20124;-86
2023/01/28 08:10:50;;;;;;;29.92;15.05;;;-2.00;78.60;;;;;;4146934;28;20029;-86
2023/01/28 08:12:57;;;;;;;28.42;14.82;;;-2.00;78.60;;;;;;4147582;28;20124;-86
2023/01/28 08:14:58;;;;;;;27.17;13.55;;;-2.00;78.60;;;;;;4162617;28;20120;-86
2023/01/28 08:16:58;;;;;;;30.25;14.48;;;-1.90;78.70;;;;;;4146919;28;20077;-87
2023/01/28 08:19:01;;;;;;;26.50;14.63;;;-1.90;78.70;;;;;;4181078;28;20024;-86
2023/01/28 08:21:22;;;;;;;30.48;14.50;;;-1.80;78.80;;;;;;4144104;28;20626;-84
2023/01/28 08:23:25;;;;;;;30.80;15.23;;;-1.80;78.80;;;;;;4143757;28;20038;-84
2023/01/28 08:25:47;;;;;;;32.88;15.55;;;-1.70;79.00;;;;;;4145037;28;20022;-84
2023/01/28 08:28:08;;;;;;;37.78;14.68;;;-1.70;79.00;;;;;;4147210;28;20561;-84
2023/01/28 08:30:30;;;;;;;25.25;13.80;;;-1.70;79.00;;;;;;4146409;28;20445;-84
2023/01/28 08:32:50;;;;;;;30.45;14.98;;;-1.60;79.00;;;;;;4143466;28;20041;-84
2023/01/28 08:35:11;;;;;;;29.70;13.45;;;-1.60;79.00;;;;;;4145764;28;21327;-83
2023/01/28 08:37:31;;;;;;;29.88;13.40;;;-1.60;78.90;;;;;;4148026;28;20053;-84
2023/01/28 08:39:52;;;;;;;28.20;14.98;;;-1.50;79.10;;;;;;4144778;28;20493;-84
2023/01/28 08:41:53;;;;;;;30.85;14.38;;;-1.50;79.10;;;;;;4149325;28;20040;-84
2023/01/28 08:43:54;;;;;;;32.97;14.63;;;-1.40;79.10;;;;;;4148436;28;20144;-87
2023/01/28 08:45:54;;;;;;;27.60;14.40;;;-1.40;79.20;;;;;;4148289;28;20040;-86
2023/01/28 08:47:58;;;;;;;29.98;13.23;;;-1.40;79.20;;;;;;4129860;28;20656;-86
2023/01/28 08:49:58;;;;;;;28.52;13.48;;;-1.30;79.10;;;;;;4146137;28;20456;-86
2023/01/28 08:51:59;;;;;;;29.92;13.10;;;-1.30;79.20;;;;;;4150499;28;20033;-86
2023/01/28 08:54:01;;;;;;;27.20;13.63;;;-1.20;79.30;;;;;;4150510;28;20033;-86
2023/01/28 08:56:21;;;;;;;25.35;12.35;;;-1.20;79.30;;;;;;4143022;28;20030;-86
2023/01/28 08:58:43;;;;;;;23.40;12.80;;;-1.10;79.40;;;;;;4149258;28;20113;-87
2023/01/28 09:01:08;;;;;;;24.75;13.25;;;-1.10;79.40;;;;;;4154865;28;21389;-86
2023/01/28 09:03:28;;;;;;;23.23;12.35;;;-1.10;79.50;;;;;;4165493;28;20159;-86
2023/01/28 09:05:52;;;;;;;22.48;11.77;;;-1.00;79.60;;;;;;4150551;28;20124;-85
2023/01/28 09:08:14;;;;;;;25.08;11.60;;;-0.90;79.60;;;;;;4150406;28;20736;-87
2023/01/28 09:10:40;;;;;;;22.58;11.60;;;-0.90;79.50;;;;;;4152088;28;20025;-86
2023/01/28 09:13:09;;;;;;;24.48;12.45;;;-0.80;79.50;;;;;;4149046;28;20144;-86
2023/01/28 09:15:11;;;;;;;27.55;11.45;;;-0.80;79.80;;;;;;4149294;28;20040;-86
2023/01/28 09:17:11;;;;;;;23.58;11.52;;;-0.60;79.90;;;;;;4149355;28;20026;-87
2023/01/28 09:19:12;;;;;;;21.92;10.77;;;-0.70;79.70;;;;;;4130908;28;20072;-85
2023/01/28 09:21:13;;;;;;;19.65;10.70;;;-0.70;79.50;;;;;;4144209;28;20030;-87
2023/01/28 09:23:13;;;;;;;25.85;11.40;;;-0.60;79.70;;;;;;4143064;28;20026;-87
2023/01/28 09:25:14;;;;;;;24.38;11.02;;;-0.60;79.80;;;;;;4147016;28;20429;-86
2023/01/28 09:27:19;;;;;;;17.88;9.95;;;-0.60;79.80;;;;;;4148284;28;20528;-87
2023/01/28 09:29:40;;;;;;;22.83;10.43;;;-0.50;80.50;;;;;;4147209;28;20442;-86
2023/01/28 09:31:41;;;;;;;24.00;11.30;;;-0.50;79.80;;;;;;4148205;28;20113;-87
2023/01/28 09:34:02;;;;;;;20.90;10.32;;;-0.40;80.00;;;;;;4148496;28;20045;-87
2023/01/28 09:36:23;;;;;;;22.30;10.45;;;-0.40;79.80;;;;;;4140607;28;20079;-84
2023/01/28 09:38:44;;;;;;;20.25;10.73;;;-0.30;79.80;;;;;;4145551;28;20760;-84
2023/01/28 09:41:48;;;;;;;24.77;11.25;;;-0.30;79.90;;;;;;4136061;28;20040;-84
2023/01/28 09:44:33;;;;;;;19.93;10.43;;;-0.20;80.10;;;;;;4134435;28;20053;-85
2023/01/28 09:47:00;;;;;;;19.45;9.93;;;-0.20;79.90;;;;;;4139555;28;20065;-83
2023/01/28 09:49:18;;;;;;;20.15;9.88;;;-0.20;79.70;;;;;;4149616;28;20497;-84
2023/01/28 09:51:34;;;;;;;19.85;9.57;;;-0.20;79.50;;;;;;4146300;28;20033;-84
2023/01/28 09:53:42;;;;;;;22.50;10.57;;;-0.10;79.70;;;;;;4132843;28;20091;-84
2023/01/28 09:55:46;;;;;;;18.40;9.85;;;-0.10;79.60;;;;;;4141829;28;20037;-84
2023/01/28 09:58:13;;;;;;;19.23;9.60;;;-0.10;79.60;;;;;;4145752;28;20040;-84
2023/01/28 10:00:31;;;;;;;19.80;9.80;;;0.00;79.60;;;;;;4146563;28;21702;-84
2023/01/28 10:03:00;;;;;;;23.00;10.45;;;0.00;79.60;;;;;;4143547;28;20029;-85
2023/01/28 10:05:54;;;;;;;19.13;10.40;;;0.00;79.80;;;;;;4143784;28;20042;-84
2023/01/28 10:08:42;;;;;;;19.00;9.75;;;0.10;80.00;;;;;;4144722;28;20033;-84
2023/01/28 10:11:27;;;;;;;20.50;9.63;;;0.20;79.80;;;;;;4143511;28;20121;-85
2023/01/28 10:14:10;;;;;;;17.98;9.00;;;0.20;79.80;;;;;;4148150;28;20080;-84
2023/01/28 10:16:40;;;;;;;22.30;10.18;;;0.20;79.70;;;;;;4146071;28;20037;-85
2023/01/28 10:19:14;;;;;;;23.05;11.23;;;0.20;79.70;;;;;;4142794;28;20037;-84
2023/01/28 10:21:51;;;;;;;20.25;9.68;;;0.30;79.70;;;;;;4148490;28;20045;-84
2023/01/28 10:24:04;;;;;;;23.50;11.40;;;0.40;79.60;;;;;;4142067;28;20088;-85
2023/01/28 10:26:25;;;;;;;22.85;11.27;;;0.40;79.50;;;;;;4179114;28;20032;-84
2023/01/28 10:28:29;;;;;;;21.15;10.88;;;0.40;79.40;;;;;;4144326;28;20025;-84
2023/01/28 10:30:34;;;;;;;22.15;11.23;;;0.50;79.50;;;;;;4138034;28;20037;-83
2023/01/28 10:32:40;;;;;;;24.42;11.05;;;0.50;79.40;;;;;;4173526;28;20036;-84
2023/01/28 10:34:41;;;;;;;21.25;10.40;;;0.50;79.40;;;;;;4174331;28;20036;-84
2023/01/28 10:36:42;;;;;;;22.75;10.93;;;0.50;79.40;;;;;;4137523;28;20148;-84
2023/01/28 10:38:48;;;;;;;20.98;11.52;;;0.50;79.40;;;;;;4123501;28;20034;-85
2023/01/28 10:40:50;;;;;;;26.40;12.10;;;0.50;79.40;;;;;;4153430;28;20114;-84
2023/01/28 10:42:50;;;;;;;18.13;10.50;;;0.60;79.50;;;;;;4137603;28;20054;-85
2023/01/28 10:44:55;;;;;;;23.08;11.50;;;0.60;79.50;;;;;;4144762;28;20176;-84
2023/01/28 10:47:00;;;;;;;21.10;11.13;;;0.60;79.50;;;;;;4127276;28;20026;-84
2023/01/28 10:49:13;;;;;;;25.00;10.77;;;0.60;79.50;;;;;;4129678;28;20632;-87
2023/01/28 10:51:38;;;;;;;17.10;9.88;;;0.60;79.50;;;;;;4158039;28;20044;-85
2023/01/28 10:53:58;;;;;;;21.15;10.98;;;0.70;79.50;;;;;;4132776;28;20026;-84
2023/01/28 10:56:04;;;;;;;23.17;11.95;;;0.70;79.60;;;;;;4127691;28;20046;-84
2023/01/28 10:58:27;;;;;;;22.02;11.43;;;0.80;79.60;;;;;;4139874;28;20034;-84
2023/01/28 11:00:58;;;;;;;20.67;10.82;;;0.80;79.60;;;;;;4141329;28;20040;-88
2023/01/28 11:03:19;;;;;;;25.50;12.20;;;0.80;79.60;;;;;;4144542;28;20104;-87
2023/01/28 11:05:50;;;;;;;28.42;10.90;;;0.80;79.60;;;;;;4147433;28;20081;-87
2023/01/28 11:08:16;;;;;;;24.50;11.38;;;0.90;79.60;;;;;;4153009;28;20037;-86
2023/01/28 11:10:39;;;;;;;23.13;11.93;;;0.90;79.70;;;;;;4151524;28;20124;-87
2023/01/28 11:13:29;;;;;;;27.13;12.10;;;1.00;80.00;;;;;;4154520;28;20038;-87
2023/01/28 11:15:30;;;;;;;22.02;11.68;;;1.00;80.10;;;;;;4151367;28;20120;-87
2023/01/28 11:17:34;;;;;;;21.92;11.02;;;1.10;80.40;;;;;;4147410;28;20030;-87
2023/01/28 11:19:37;;;;;;;20.92;10.43;;;1.10;80.30;;;;;;4135487;28;20030;-88
2023/01/28 11:21:59;;;;;;;23.55;10.48;;;1.20;80.40;;;;;;4164092;28;20112;-86
2023/01/28 11:24:29;;;;;;;21.13;10.52;;;1.30;80.50;;;;;;4146818;28;20125;-87
2023/01/28 11:26:54;;;;;;;18.65;9.45;;;1.30;80.30;;;;;;4146832;28;20048;-87
2023/01/28 11:29:37;;;;;;;21.67;10.82;;;1.40;80.40;;;;;;4174419;28;20036;-87
2023/01/28 11:31:43;;;;;;;18.52;9.57;;;1.60;80.50;;;;;;4143339;28;20060;-87
2023/01/28 11:33:58;;;;;;;19.20;9.73;;;1.50;80.40;;;;;;4146503;28;20494;-88
2023/01/28 11:36:17;;;;;;;21.58;9.77;;;1.60;80.40;;;;;;4125008;28;20022;-87
2023/01/28 11:38:20;;;;;;;24.98;10.95;;;1.70;80.60;;;;;;4164295;28;20030;-87
2023/01/28 11:40:21;;;;;;;20.65;10.75;;;1.80;80.70;;;;;;4171598;28;20124;-86
2023/01/28 11:42:22;;;;;;;20.77;10.98;;;1.80;80.90;;;;;;4141162;28;20518;-87
2023/01/28 11:44:26;;;;;;;19.38;9.80;;;1.90;81.00;;;;;;4138308;28;20044;-85
2023/01/28 11:46:51;;;;;;;20.58;10.10;;;2.00;81.20;;;;;;4142642;28;20071;-84
2023/01/28 11:49:12;;;;;;;19.70;9.50;;;2.10;81.20;;;;;;4156711;28;20025;-89
2023/01/28 11:51:45;;;;;;;20.38;9.05;;;2.20;81.00;;;;;;4132061;28;20142;-88
2023/01/28 11:54:03;;;;;;;19.75;8.75;;;2.30;81.00;;;;;;4139650;28;20033;-85
2023/01/28 11:56:03;;;;;;;17.70;8.75;;;2.30;80.70;;;;;;4143145;28;20145;-84
2023/01/28 11:58:31;;;;;;;17.08;8.77;;;2.40;80.50;;;;;;4155376;28;20098;-85
2023/01/28 12:00:46;;;;;;;21.85;8.48;;;2.50;80.40;;;;;;4151147;28;20021;-84
2023/01/28 12:02:56;;;;;;;23.35;8.40;;;2.50;80.20;;;;;;4137715;28;20021;-85
2023/01/28 12:05:16;;;;;;;20.50;8.60;;;2.60;80.20;;;;;;4137708;28;20135;-86
2023/01/28 12:07:33;;;;;;;20.52;8.13;;;2.70;80.00;;;;;;4145158;28;20116;-85